sensor_id;sensor_type;location;lat;lon;timestamp;P1;durP1;ratioP1;P2;durP2;ratioP2
1831;SDS011;1680;48.106;11.708;2023-06-04T00:02:21;8.33;;;7.57;;
1831;SDS011;1680;48.106;11.708;2023-06-04T00:04:49;9.50;;;8.60;;
1831;SDS011;1680;48.106;11.708;2023-06-04T00:07:16;9.60;;;8.70;;
1831;SDS011;1680;48.106;11.708;2023-06-04T00:09:44;9.47;;;8.60;;
1831;SDS011;1680;48.106;11.708;2023-06-04T00:12:12;8.53;;;7.77;;
1831;SDS011;1680;48.106;11.708;2023-06-04T00:14:39;7.93;;;7.13;;
1831;SDS011;1680;48.106;11.708;2023-06-04T00:17:07;7.80;;;7.00;;
1831;SDS011;1680;48.106;11.708;2023-06-04T00:19:35;6.03;;;5.43;;
1831;SDS011;1680;48.106;11.708;2023-06-04T00:22:06;6.70;;;6.00;;
1831;SDS011;1680;48.106;11.708;2023-06-04T00:24:35;7.50;;;6.00;;
1831;SDS011;1680;48.106;11.708;2023-06-04T00:27:05;6.70;;;6.20;;
1831;SDS011;1680;48.106;11.708;2023-06-04T00:29:33;7.00;;;6.30;;
1831;SDS011;1680;48.106;11.708;2023-06-04T00:32:01;7.13;;;6.20;;
1831;SDS011;1680;48.106;11.708;2023-06-04T00:34:28;7.20;;;6.50;;
1831;SDS011;1680;48.106;11.708;2023-06-04T00:36:55;8.63;;;5.67;;
1831;SDS011;1680;48.106;11.708;2023-06-04T00:39:24;6.33;;;5.67;;
1831;SDS011;1680;48.106;11.708;2023-06-04T00:41:51;6.60;;;6.00;;
1831;SDS011;1680;48.106;11.708;2023-06-04T00:44:19;5.87;;;5.27;;
1831;SDS011;1680;48.106;11.708;2023-06-04T00:46:47;6.07;;;5.47;;
1831;SDS011;1680;48.106;11.708;2023-06-04T00:49:14;6.00;;;5.40;;
1831;SDS011;1680;48.106;11.708;2023-06-04T00:51:41;9.03;;;6.10;;
1831;SDS011;1680;48.106;11.708;2023-06-04T00:54:09;6.00;;;5.50;;
1831;SDS011;1680;48.106;11.708;2023-06-04T00:56:39;5.43;;;4.57;;
1831;SDS011;1680;48.106;11.708;2023-06-04T00:59:07;5.43;;;4.83;;
1831;SDS011;1680;48.106;11.708;2023-06-04T01:01:37;5.50;;;4.90;;
1831;SDS011;1680;48.106;11.708;2023-06-04T01:04:12;6.53;;;5.03;;
1831;SDS011;1680;48.106;11.708;2023-06-04T01:06:45;5.67;;;5.07;;
1831;SDS011;1680;48.106;11.708;2023-06-04T01:09:16;5.87;;;5.37;;
1831;SDS011;1680;48.106;11.708;2023-06-04T01:11:47;6.80;;;6.13;;
1831;SDS011;1680;48.106;11.708;2023-06-04T01:14:14;6.30;;;5.70;;
1831;SDS011;1680;48.106;11.708;2023-06-04T01:16:45;4.90;;;4.50;;
1831;SDS011;1680;48.106;11.708;2023-06-04T01:19:31;6.37;;;4.70;;
1831;SDS011;1680;48.106;11.708;2023-06-04T01:22:23;5.80;;;5.30;;
1831;SDS011;1680;48.106;11.708;2023-06-04T01:25:03;4.90;;;4.40;;
1831;SDS011;1680;48.106;11.708;2023-06-04T01:27:33;4.90;;;4.33;;
1831;SDS011;1680;48.106;11.708;2023-06-04T01:30:02;5.10;;;4.60;;
1831;SDS011;1680;48.106;11.708;2023-06-04T01:32:30;5.00;;;4.50;;
1831;SDS011;1680;48.106;11.708;2023-06-04T01:34:58;7.20;;;5.27;;
1831;SDS011;1680;48.106;11.708;2023-06-04T01:37:26;5.37;;;4.70;;
1831;SDS011;1680;48.106;11.708;2023-06-04T01:39:53;5.43;;;4.93;;
1831;SDS011;1680;48.106;11.708;2023-06-04T01:42:20;4.77;;;4.37;;
1831;SDS011;1680;48.106;11.708;2023-06-04T01:44:49;6.50;;;4.80;;
1831;SDS011;1680;48.106;11.708;2023-06-04T01:47:16;5.47;;;4.97;;
1831;SDS011;1680;48.106;11.708;2023-06-04T01:49:43;5.83;;;5.17;;
1831;SDS011;1680;48.106;11.708;2023-06-04T01:52:10;5.40;;;4.60;;
1831;SDS011;1680;48.106;11.708;2023-06-04T01:54:37;7.17;;;4.83;;
1831;SDS011;1680;48.106;11.708;2023-06-04T01:57:06;6.83;;;4.80;;
1831;SDS011;1680;48.106;11.708;2023-06-04T01:59:34;6.17;;;5.10;;
1831;SDS011;1680;48.106;11.708;2023-06-04T02:02:05;7.10;;;5.50;;
1831;SDS011;1680;48.106;11.708;2023-06-04T02:04:32;5.50;;;5.00;;
1831;SDS011;1680;48.106;11.708;2023-06-04T02:07:01;7.70;;;5.13;;
1831;SDS011;1680;48.106;11.708;2023-06-04T02:09:28;6.30;;;5.27;;
1831;SDS011;1680;48.106;11.708;2023-06-04T02:11:56;5.67;;;5.13;;
1831;SDS011;1680;48.106;11.708;2023-06-04T02:14:23;5.20;;;4.70;;
1831;SDS011;1680;48.106;11.708;2023-06-04T02:16:50;8.30;;;5.87;;
1831;SDS011;1680;48.106;11.708;2023-06-04T02:19:20;5.17;;;4.77;;
1831;SDS011;1680;48.106;11.708;2023-06-04T02:21:47;6.03;;;5.43;;
1831;SDS011;1680;48.106;11.708;2023-06-04T02:24:14;5.43;;;4.93;;
1831;SDS011;1680;48.106;11.708;2023-06-04T02:26:42;7.03;;;5.33;;
1831;SDS011;1680;48.106;11.708;2023-06-04T02:29:09;6.07;;;5.47;;
1831;SDS011;1680;48.106;11.708;2023-06-04T02:31:36;5.87;;;5.13;;
1831;SDS011;1680;48.106;11.708;2023-06-04T02:34:03;6.10;;;5.60;;
1831;SDS011;1680;48.106;11.708;2023-06-04T02:36:32;5.33;;;4.83;;
1831;SDS011;1680;48.106;11.708;2023-06-04T02:38:59;6.10;;;5.50;;
1831;SDS011;1680;48.106;11.708;2023-06-04T02:41:26;5.40;;;4.60;;
1831;SDS011;1680;48.106;11.708;2023-06-04T02:43:53;5.20;;;4.70;;
1831;SDS011;1680;48.106;11.708;2023-06-04T02:46:21;5.60;;;5.07;;
1831;SDS011;1680;48.106;11.708;2023-06-04T02:48:48;5.13;;;4.63;;
1831;SDS011;1680;48.106;11.708;2023-06-04T02:51:15;5.87;;;4.73;;
1831;SDS011;1680;48.106;11.708;2023-06-04T02:53:44;5.93;;;5.27;;
1831;SDS011;1680;48.106;11.708;2023-06-04T02:56:11;5.77;;;4.80;;
1831;SDS011;1680;48.106;11.708;2023-06-04T02:58:48;5.53;;;5.03;;
1831;SDS011;1680;48.106;11.708;2023-06-04T03:01:17;5.97;;;5.47;;
1831;SDS011;1680;48.106;11.708;2023-06-04T03:03:46;6.60;;;5.27;;
1831;SDS011;1680;48.106;11.708;2023-06-04T03:06:13;6.17;;;5.57;;
1831;SDS011;1680;48.106;11.708;2023-06-04T03:08:41;5.70;;;5.20;;
1831;SDS011;1680;48.106;11.708;2023-06-04T03:11:11;7.33;;;5.03;;
1831;SDS011;1680;48.106;11.708;2023-06-04T03:13:38;7.63;;;4.97;;
1831;SDS011;1680;48.106;11.708;2023-06-04T03:16:06;5.20;;;4.70;;
1831;SDS011;1680;48.106;11.708;2023-06-04T03:18:35;5.90;;;5.30;;
1831;SDS011;1680;48.106;11.708;2023-06-04T03:21:03;5.53;;;5.03;;
1831;SDS011;1680;48.106;11.708;2023-06-04T03:23:30;5.63;;;5.13;;
1831;SDS011;1680;48.106;11.708;2023-06-04T03:25:57;5.60;;;5.10;;
1831;SDS011;1680;48.106;11.708;2023-06-04T03:28:26;6.00;;;5.50;;
1831;SDS011;1680;48.106;11.708;2023-06-04T03:30:53;6.20;;;5.60;;
1831;SDS011;1680;48.106;11.708;2023-06-04T03:33:20;5.20;;;4.80;;
1831;SDS011;1680;48.106;11.708;2023-06-04T03:35:47;6.00;;;5.10;;
1831;SDS011;1680;48.106;11.708;2023-06-04T03:38:15;6.00;;;5.43;;
1831;SDS011;1680;48.106;11.708;2023-06-04T03:40:42;5.77;;;5.10;;
1831;SDS011;1680;48.106;11.708;2023-06-04T03:43:09;5.50;;;5.10;;
1831;SDS011;1680;48.106;11.708;2023-06-04T03:45:38;5.60;;;5.10;;
1831;SDS011;1680;48.106;11.708;2023-06-04T03:48:05;4.97;;;4.47;;
1831;SDS011;1680;48.106;11.708;2023-06-04T03:50:32;5.80;;;5.30;;
1831;SDS011;1680;48.106;11.708;2023-06-04T03:53:00;6.00;;;5.50;;
1831;SDS011;1680;48.106;11.708;2023-06-04T03:55:30;5.63;;;5.13;;
1831;SDS011;1680;48.106;11.708;2023-06-04T03:57:58;5.00;;;4.60;;
1831;SDS011;1680;48.106;11.708;2023-06-04T04:00:26;5.37;;;4.87;;
1831;SDS011;1680;48.106;11.708;2023-06-04T04:02:55;5.40;;;4.90;;
1831;SDS011;1680;48.106;11.708;2023-06-04T04:05:22;5.47;;;4.97;;
1831;SDS011;1680;48.106;11.708;2023-06-04T04:07:49;4.97;;;4.53;;
1831;SDS011;1680;48.106;11.708;2023-06-04T04:10:17;5.57;;;5.07;;
1831;SDS011;1680;48.106;11.708;2023-06-04T04:12:44;5.30;;;4.90;;
1831;SDS011;1680;48.106;11.708;2023-06-04T04:15:11;5.80;;;5.30;;
1831;SDS011;1680;48.106;11.708;2023-06-04T04:17:39;5.20;;;4.80;;
1831;SDS011;1680;48.106;11.708;2023-06-04T04:20:07;5.53;;;5.03;;
1831;SDS011;1680;48.106;11.708;2023-06-04T04:22:39;5.30;;;4.80;;
1831;SDS011;1680;48.106;11.708;2023-06-04T04:25:07;5.37;;;4.87;;
1831;SDS011;1680;48.106;11.708;2023-06-04T04:27:35;6.70;;;5.90;;
1831;SDS011;1680;48.106;11.708;2023-06-04T04:30:06;5.30;;;4.80;;
1831;SDS011;1680;48.106;11.708;2023-06-04T04:32:34;9.40;;;6.10;;
1831;SDS011;1680;48.106;11.708;2023-06-04T04:35:04;5.67;;;5.10;;
1831;SDS011;1680;48.106;11.708;2023-06-04T04:37:34;5.67;;;5.07;;
1831;SDS011;1680;48.106;11.708;2023-06-04T04:40:05;5.77;;;5.27;;
1831;SDS011;1680;48.106;11.708;2023-06-04T04:42:35;5.57;;;4.93;;
1831;SDS011;1680;48.106;11.708;2023-06-04T04:45:03;5.53;;;4.90;;
1831;SDS011;1680;48.106;11.708;2023-06-04T04:47:30;5.50;;;4.83;;
1831;SDS011;1680;48.106;11.708;2023-06-04T04:49:58;5.20;;;4.70;;
1831;SDS011;1680;48.106;11.708;2023-06-04T04:52:25;6.10;;;5.20;;
1831;SDS011;1680;48.106;11.708;2023-06-04T04:54:53;5.80;;;5.20;;
1831;SDS011;1680;48.106;11.708;2023-06-04T04:57:22;6.30;;;5.53;;
1831;SDS011;1680;48.106;11.708;2023-06-04T04:59:50;5.60;;;5.10;;
1831;SDS011;1680;48.106;11.708;2023-06-04T05:02:17;5.57;;;4.83;;
1831;SDS011;1680;48.106;11.708;2023-06-04T05:04:44;5.27;;;4.77;;
1831;SDS011;1680;48.106;11.708;2023-06-04T05:07:11;5.53;;;4.93;;
1831;SDS011;1680;48.106;11.708;2023-06-04T05:09:39;5.20;;;4.70;;
1831;SDS011;1680;48.106;11.708;2023-06-04T05:12:08;6.90;;;5.20;;
1831;SDS011;1680;48.106;11.708;2023-06-04T05:14:35;4.03;;;3.73;;
1831;SDS011;1680;48.106;11.708;2023-06-04T05:17:02;5.67;;;5.10;;
1831;SDS011;1680;48.106;11.708;2023-06-04T05:19:31;6.50;;;4.67;;
1831;SDS011;1680;48.106;11.708;2023-06-04T05:21:58;6.83;;;5.07;;
1831;SDS011;1680;48.106;11.708;2023-06-04T05:24:26;5.30;;;4.80;;
1831;SDS011;1680;48.106;11.708;2023-06-04T05:26:53;6.93;;;4.83;;
1831;SDS011;1680;48.106;11.708;2023-06-04T05:29:22;8.57;;;5.10;;
1831;SDS011;1680;48.106;11.708;2023-06-04T05:31:49;7.13;;;5.50;;
1831;SDS011;1680;48.106;11.708;2023-06-04T05:34:17;5.17;;;4.67;;
1831;SDS011;1680;48.106;11.708;2023-06-04T05:36:44;5.57;;;4.70;;
1831;SDS011;1680;48.106;11.708;2023-06-04T05:39:11;6.03;;;5.27;;
1831;SDS011;1680;48.106;11.708;2023-06-04T05:41:39;6.67;;;5.30;;
1831;SDS011;1680;48.106;11.708;2023-06-04T05:44:07;5.30;;;4.43;;
1831;SDS011;1680;48.106;11.708;2023-06-04T05:46:35;5.73;;;5.13;;
1831;SDS011;1680;48.106;11.708;2023-06-04T05:49:03;5.57;;;4.60;;
1831;SDS011;1680;48.106;11.708;2023-06-04T05:51:30;5.70;;;5.20;;
1831;SDS011;1680;48.106;11.708;2023-06-04T05:53:57;6.30;;;4.97;;
1831;SDS011;1680;48.106;11.708;2023-06-04T05:56:24;5.33;;;4.83;;
1831;SDS011;1680;48.106;11.708;2023-06-04T05:58:52;4.80;;;4.40;;
1831;SDS011;1680;48.106;11.708;2023-06-04T06:01:19;6.43;;;4.90;;
1831;SDS011;1680;48.106;11.708;2023-06-04T06:03:48;6.07;;;4.10;;
1831;SDS011;1680;48.106;11.708;2023-06-04T06:06:15;6.47;;;4.83;;
1831;SDS011;1680;48.106;11.708;2023-06-04T06:08:43;6.17;;;3.83;;
1831;SDS011;1680;48.106;11.708;2023-06-04T06:11:10;5.27;;;4.20;;
1831;SDS011;1680;48.106;11.708;2023-06-04T06:13:38;5.83;;;4.80;;
1831;SDS011;1680;48.106;11.708;2023-06-04T06:16:05;4.67;;;4.20;;
1831;SDS011;1680;48.106;11.708;2023-06-04T06:18:32;5.13;;;3.77;;
1831;SDS011;1680;48.106;11.708;2023-06-04T06:21:00;6.83;;;4.50;;
1831;SDS011;1680;48.106;11.708;2023-06-04T06:23:28;5.13;;;4.50;;
1831;SDS011;1680;48.106;11.708;2023-06-04T06:25:55;6.70;;;4.03;;
1831;SDS011;1680;48.106;11.708;2023-06-04T06:28:26;7.50;;;4.10;;
1831;SDS011;1680;48.106;11.708;2023-06-04T06:30:54;4.60;;;4.20;;
1831;SDS011;1680;48.106;11.708;2023-06-04T06:33:21;6.60;;;4.50;;
1831;SDS011;1680;48.106;11.708;2023-06-04T06:35:48;4.83;;;4.20;;
1831;SDS011;1680;48.106;11.708;2023-06-04T06:38:17;4.87;;;4.47;;
1831;SDS011;1680;48.106;11.708;2023-06-04T06:40:44;5.57;;;5.07;;
1831;SDS011;1680;48.106;11.708;2023-06-04T06:43:11;5.07;;;4.30;;
1831;SDS011;1680;48.106;11.708;2023-06-04T06:45:39;6.23;;;4.70;;
1831;SDS011;1680;48.106;11.708;2023-06-04T06:48:06;4.97;;;4.50;;
1831;SDS011;1680;48.106;11.708;2023-06-04T06:50:33;6.53;;;4.43;;
1831;SDS011;1680;48.106;11.708;2023-06-04T06:53:00;4.43;;;4.03;;
1831;SDS011;1680;48.106;11.708;2023-06-04T06:55:29;4.97;;;4.47;;
1831;SDS011;1680;48.106;11.708;2023-06-04T06:57:56;5.17;;;4.67;;
1831;SDS011;1680;48.106;11.708;2023-06-04T07:00:23;4.53;;;4.13;;
1831;SDS011;1680;48.106;11.708;2023-06-04T07:02:50;6.23;;;4.80;;
1831;SDS011;1680;48.106;11.708;2023-06-04T07:05:17;4.80;;;4.20;;
1831;SDS011;1680;48.106;11.708;2023-06-04T07:07:45;4.73;;;4.33;;
1831;SDS011;1680;48.106;11.708;2023-06-04T07:10:13;5.63;;;4.50;;
1831;SDS011;1680;48.106;11.708;2023-06-04T07:12:41;4.80;;;4.30;;
1831;SDS011;1680;48.106;11.708;2023-06-04T07:15:08;4.87;;;4.33;;
1831;SDS011;1680;48.106;11.708;2023-06-04T07:17:36;7.23;;;5.10;;
1831;SDS011;1680;48.106;11.708;2023-06-04T07:20:03;5.03;;;4.53;;
1831;SDS011;1680;48.106;11.708;2023-06-04T07:22:32;8.33;;;4.67;;
1831;SDS011;1680;48.106;11.708;2023-06-04T07:24:59;4.63;;;4.23;;
1831;SDS011;1680;48.106;11.708;2023-06-04T07:27:26;4.73;;;4.33;;
1831;SDS011;1680;48.106;11.708;2023-06-04T07:29:55;5.53;;;4.50;;
1831;SDS011;1680;48.106;11.708;2023-06-04T07:32:22;6.23;;;4.53;;
1831;SDS011;1680;48.106;11.708;2023-06-04T07:34:49;4.70;;;3.90;;
1831;SDS011;1680;48.106;11.708;2023-06-04T07:37:16;4.87;;;4.37;;
1831;SDS011;1680;48.106;11.708;2023-06-04T07:39:43;4.30;;;4.00;;
1831;SDS011;1680;48.106;11.708;2023-06-04T07:42:11;6.43;;;4.30;;
1831;SDS011;1680;48.106;11.708;2023-06-04T07:44:38;7.23;;;4.27;;
1831;SDS011;1680;48.106;11.708;2023-06-04T07:47:07;4.47;;;4.07;;
1831;SDS011;1680;48.106;11.708;2023-06-04T07:49:34;5.63;;;4.27;;
1831;SDS011;1680;48.106;11.708;2023-06-04T07:52:01;4.70;;;4.27;;
1831;SDS011;1680;48.106;11.708;2023-06-04T07:54:28;5.60;;;4.20;;
1831;SDS011;1680;48.106;11.708;2023-06-04T07:56:56;8.27;;;4.60;;
1831;SDS011;1680;48.106;11.708;2023-06-04T07:59:23;5.37;;;4.00;;
1831;SDS011;1680;48.106;11.708;2023-06-04T08:01:51;5.93;;;4.47;;
1831;SDS011;1680;48.106;11.708;2023-06-04T08:04:19;4.57;;;3.90;;
1831;SDS011;1680;48.106;11.708;2023-06-04T08:06:46;5.13;;;4.00;;
1831;SDS011;1680;48.106;11.708;2023-06-04T08:09:14;5.60;;;4.37;;
1831;SDS011;1680;48.106;11.708;2023-06-04T08:11:42;6.07;;;4.57;;
1831;SDS011;1680;48.106;11.708;2023-06-04T08:14:09;5.53;;;4.33;;
1831;SDS011;1680;48.106;11.708;2023-06-04T08:16:37;5.33;;;4.53;;
1831;SDS011;1680;48.106;11.708;2023-06-04T08:19:05;5.60;;;4.10;;
1831;SDS011;1680;48.106;11.708;2023-06-04T08:21:34;4.80;;;4.30;;
1831;SDS011;1680;48.106;11.708;2023-06-04T08:24:02;4.80;;;4.23;;
1831;SDS011;1680;48.106;11.708;2023-06-04T08:26:29;4.50;;;3.80;;
1831;SDS011;1680;48.106;11.708;2023-06-04T08:28:57;6.40;;;3.77;;
1831;SDS011;1680;48.106;11.708;2023-06-04T08:31:24;4.30;;;4.00;;
1831;SDS011;1680;48.106;11.708;2023-06-04T08:33:51;4.90;;;4.40;;
1831;SDS011;1680;48.106;11.708;2023-06-04T08:36:18;3.63;;;3.33;;
1831;SDS011;1680;48.106;11.708;2023-06-04T08:38:47;4.90;;;4.17;;
1831;SDS011;1680;48.106;11.708;2023-06-04T08:41:17;4.33;;;3.93;;
1831;SDS011;1680;48.106;11.708;2023-06-04T08:43:50;5.33;;;3.87;;
1831;SDS011;1680;48.106;11.708;2023-06-04T08:46:17;4.43;;;3.80;;
1831;SDS011;1680;48.106;11.708;2023-06-04T08:48:46;4.37;;;3.97;;
1831;SDS011;1680;48.106;11.708;2023-06-04T08:51:15;4.53;;;3.90;;
1831;SDS011;1680;48.106;11.708;2023-06-04T08:53:43;5.07;;;3.57;;
1831;SDS011;1680;48.106;11.708;2023-06-04T08:56:16;4.47;;;3.70;;
1831;SDS011;1680;48.106;11.708;2023-06-04T08:58:43;5.67;;;3.90;;
1831;SDS011;1680;48.106;11.708;2023-06-04T09:01:12;4.83;;;4.40;;
1831;SDS011;1680;48.106;11.708;2023-06-04T09:03:41;5.10;;;3.80;;
1831;SDS011;1680;48.106;11.708;2023-06-04T09:06:08;4.10;;;3.70;;
1831;SDS011;1680;48.106;11.708;2023-06-04T09:08:37;4.80;;;4.20;;
1831;SDS011;1680;48.106;11.708;2023-06-04T09:11:07;5.03;;;4.53;;
1831;SDS011;1680;48.106;11.708;2023-06-04T09:13:38;4.03;;;3.67;;
1831;SDS011;1680;48.106;11.708;2023-06-04T09:16:07;5.17;;;4.47;;
1831;SDS011;1680;48.106;11.708;2023-06-04T09:18:34;4.40;;;3.70;;
1831;SDS011;1680;48.106;11.708;2023-06-04T09:21:02;4.60;;;3.90;;
1831;SDS011;1680;48.106;11.708;2023-06-04T09:23:30;3.80;;;3.50;;
1831;SDS011;1680;48.106;11.708;2023-06-04T09:26:05;4.13;;;3.73;;
1831;SDS011;1680;48.106;11.708;2023-06-04T09:28:33;4.40;;;4.03;;
1831;SDS011;1680;48.106;11.708;2023-06-04T09:31:02;5.63;;;4.40;;
1831;SDS011;1680;48.106;11.708;2023-06-04T09:33:29;3.93;;;3.63;;
1831;SDS011;1680;48.106;11.708;2023-06-04T09:35:57;4.73;;;3.90;;
1831;SDS011;1680;48.106;11.708;2023-06-04T09:38:31;4.50;;;4.10;;
1831;SDS011;1680;48.106;11.708;2023-06-04T09:41:00;7.97;;;4.47;;
1831;SDS011;1680;48.106;11.708;2023-06-04T09:43:29;5.00;;;4.50;;
1831;SDS011;1680;48.106;11.708;2023-06-04T09:46:08;4.83;;;3.80;;
1831;SDS011;1680;48.106;11.708;2023-06-04T09:48:37;4.30;;;3.83;;
1831;SDS011;1680;48.106;11.708;2023-06-04T09:51:08;4.13;;;3.83;;
1831;SDS011;1680;48.106;11.708;2023-06-04T09:53:36;4.70;;;4.17;;
1831;SDS011;1680;48.106;11.708;2023-06-04T09:56:04;4.87;;;4.33;;
1831;SDS011;1680;48.106;11.708;2023-06-04T09:58:35;5.07;;;4.07;;
1831;SDS011;1680;48.106;11.708;2023-06-04T10:01:03;4.87;;;4.37;;
1831;SDS011;1680;48.106;11.708;2023-06-04T10:03:34;5.33;;;4.03;;
1831;SDS011;1680;48.106;11.708;2023-06-04T10:06:03;4.40;;;4.00;;
1831;SDS011;1680;48.106;11.708;2023-06-04T10:08:31;4.70;;;3.60;;
1831;SDS011;1680;48.106;11.708;2023-06-04T10:11:00;4.47;;;4.07;;
1831;SDS011;1680;48.106;11.708;2023-06-04T10:13:29;4.60;;;4.10;;
1831;SDS011;1680;48.106;11.708;2023-06-04T10:15:58;4.27;;;3.87;;
1831;SDS011;1680;48.106;11.708;2023-06-04T10:18:27;7.53;;;4.33;;
1831;SDS011;1680;48.106;11.708;2023-06-04T10:20:56;5.37;;;4.87;;
1831;SDS011;1680;48.106;11.708;2023-06-04T10:23:24;4.23;;;3.83;;
1831;SDS011;1680;48.106;11.708;2023-06-04T10:25:51;4.10;;;3.80;;
1831;SDS011;1680;48.106;11.708;2023-06-04T10:28:19;4.87;;;4.00;;
1831;SDS011;1680;48.106;11.708;2023-06-04T10:30:47;4.00;;;3.60;;
1831;SDS011;1680;48.106;11.708;2023-06-04T10:33:16;4.90;;;4.40;;
1831;SDS011;1680;48.106;11.708;2023-06-04T10:35:48;4.80;;;4.43;;
1831;SDS011;1680;48.106;11.708;2023-06-04T10:38:17;4.80;;;4.40;;
1831;SDS011;1680;48.106;11.708;2023-06-04T10:40:45;4.47;;;4.07;;
1831;SDS011;1680;48.106;11.708;2023-06-04T10:43:14;4.03;;;3.67;;
1831;SDS011;1680;48.106;11.708;2023-06-04T10:45:42;4.73;;;4.33;;
1831;SDS011;1680;48.106;11.708;2023-06-04T10:48:10;4.60;;;4.20;;
1831;SDS011;1680;48.106;11.708;2023-06-04T10:50:47;6.60;;;4.43;;
1831;SDS011;1680;48.106;11.708;2023-06-04T10:53:17;4.40;;;4.00;;
1831;SDS011;1680;48.106;11.708;2023-06-04T10:55:45;4.43;;;4.03;;
1831;SDS011;1680;48.106;11.708;2023-06-04T10:58:13;4.27;;;3.87;;
1831;SDS011;1680;48.106;11.708;2023-06-04T11:00:43;7.50;;;3.97;;
1831;SDS011;1680;48.106;11.708;2023-06-04T11:03:13;4.43;;;4.03;;
1831;SDS011;1680;48.106;11.708;2023-06-04T11:05:42;4.57;;;3.73;;
1831;SDS011;1680;48.106;11.708;2023-06-04T11:08:10;4.60;;;4.20;;
1831;SDS011;1680;48.106;11.708;2023-06-04T11:10:41;4.70;;;4.30;;
1831;SDS011;1680;48.106;11.708;2023-06-04T11:13:09;4.33;;;4.03;;
1831;SDS011;1680;48.106;11.708;2023-06-04T11:15:37;4.90;;;4.50;;
1831;SDS011;1680;48.106;11.708;2023-06-04T11:18:05;4.40;;;4.07;;
1831;SDS011;1680;48.106;11.708;2023-06-04T11:20:32;4.80;;;4.40;;
1831;SDS011;1680;48.106;11.708;2023-06-04T11:23:00;5.20;;;4.70;;
1831;SDS011;1680;48.106;11.708;2023-06-04T11:25:28;4.83;;;4.33;;
1831;SDS011;1680;48.106;11.708;2023-06-04T11:27:59;4.80;;;4.40;;
1831;SDS011;1680;48.106;11.708;2023-06-04T11:30:27;7.97;;;4.20;;
1831;SDS011;1680;48.106;11.708;2023-06-04T11:33:01;5.07;;;4.43;;
1831;SDS011;1680;48.106;11.708;2023-06-04T11:35:30;7.63;;;5.10;;
1831;SDS011;1680;48.106;11.708;2023-06-04T11:37:59;5.27;;;4.40;;
1831;SDS011;1680;48.106;11.708;2023-06-04T11:40:26;5.53;;;4.90;;
1831;SDS011;1680;48.106;11.708;2023-06-04T11:42:53;5.03;;;4.50;;
1831;SDS011;1680;48.106;11.708;2023-06-04T11:45:22;5.50;;;5.00;;
1831;SDS011;1680;48.106;11.708;2023-06-04T11:47:51;8.83;;;4.80;;
1831;SDS011;1680;48.106;11.708;2023-06-04T11:50:20;4.50;;;4.10;;
1831;SDS011;1680;48.106;11.708;2023-06-04T11:52:48;6.43;;;4.90;;
1831;SDS011;1680;48.106;11.708;2023-06-04T11:55:16;4.90;;;4.50;;
1831;SDS011;1680;48.106;11.708;2023-06-04T11:57:45;5.03;;;4.57;;
1831;SDS011;1680;48.106;11.708;2023-06-04T12:00:13;5.90;;;4.57;;
1831;SDS011;1680;48.106;11.708;2023-06-04T12:02:49;5.63;;;4.60;;
1831;SDS011;1680;48.106;11.708;2023-06-04T12:05:18;6.03;;;4.77;;
1831;SDS011;1680;48.106;11.708;2023-06-04T12:07:48;5.27;;;4.87;;
1831;SDS011;1680;48.106;11.708;2023-06-04T12:10:17;4.73;;;4.17;;
1831;SDS011;1680;48.106;11.708;2023-06-04T12:12:44;5.03;;;4.40;;
1831;SDS011;1680;48.106;11.708;2023-06-04T12:15:12;4.90;;;4.50;;
1831;SDS011;1680;48.106;11.708;2023-06-04T12:17:50;5.10;;;4.60;;
1831;SDS011;1680;48.106;11.708;2023-06-04T12:20:17;5.73;;;5.00;;
1831;SDS011;1680;48.106;11.708;2023-06-04T12:22:45;4.70;;;4.30;;
1831;SDS011;1680;48.106;11.708;2023-06-04T12:25:23;6.13;;;4.80;;
1831;SDS011;1680;48.106;11.708;2023-06-04T12:27:51;5.10;;;4.60;;
1831;SDS011;1680;48.106;11.708;2023-06-04T12:30:19;4.97;;;4.53;;
1831;SDS011;1680;48.106;11.708;2023-06-04T12:32:47;5.13;;;4.63;;
1831;SDS011;1680;48.106;11.708;2023-06-04T12:35:17;5.10;;;4.50;;
1831;SDS011;1680;48.106;11.708;2023-06-04T12:37:46;4.67;;;4.13;;
1831;SDS011;1680;48.106;11.708;2023-06-04T12:40:13;4.70;;;4.33;;
1831;SDS011;1680;48.106;11.708;2023-06-04T12:42:40;4.70;;;4.10;;
1831;SDS011;1680;48.106;11.708;2023-06-04T12:45:09;6.47;;;4.97;;
1831;SDS011;1680;48.106;11.708;2023-06-04T12:47:39;5.10;;;4.30;;
1831;SDS011;1680;48.106;11.708;2023-06-04T12:50:07;5.03;;;4.53;;
1831;SDS011;1680;48.106;11.708;2023-06-04T12:52:36;4.93;;;4.53;;
1831;SDS011;1680;48.106;11.708;2023-06-04T12:55:03;5.03;;;4.50;;
1831;SDS011;1680;48.106;11.708;2023-06-04T12:57:31;4.40;;;4.10;;
1831;SDS011;1680;48.106;11.708;2023-06-04T12:59:58;5.43;;;4.40;;
1831;SDS011;1680;48.106;11.708;2023-06-04T13:02:25;5.60;;;4.60;;
1831;SDS011;1680;48.106;11.708;2023-06-04T13:04:53;4.90;;;4.50;;
1831;SDS011;1680;48.106;11.708;2023-06-04T13:07:21;5.40;;;4.90;;
1831;SDS011;1680;48.106;11.708;2023-06-04T13:09:49;5.87;;;4.97;;
1831;SDS011;1680;48.106;11.708;2023-06-04T13:12:16;4.80;;;4.40;;
1831;SDS011;1680;48.106;11.708;2023-06-04T13:14:44;5.00;;;4.40;;
1831;SDS011;1680;48.106;11.708;2023-06-04T13:17:14;5.10;;;4.70;;
1831;SDS011;1680;48.106;11.708;2023-06-04T13:19:41;5.83;;;5.23;;
1831;SDS011;1680;48.106;11.708;2023-06-04T13:22:08;5.00;;;4.50;;
1831;SDS011;1680;48.106;11.708;2023-06-04T13:24:35;5.07;;;4.63;;
1831;SDS011;1680;48.106;11.708;2023-06-04T13:27:04;5.10;;;4.70;;
1831;SDS011;1680;48.106;11.708;2023-06-04T13:29:31;4.90;;;4.40;;
1831;SDS011;1680;48.106;11.708;2023-06-04T13:31:59;5.67;;;4.70;;
1831;SDS011;1680;48.106;11.708;2023-06-04T13:34:27;5.37;;;4.87;;
1831;SDS011;1680;48.106;11.708;2023-06-04T13:36:56;4.93;;;4.53;;
1831;SDS011;1680;48.106;11.708;2023-06-04T13:39:23;4.77;;;4.37;;
1831;SDS011;1680;48.106;11.708;2023-06-04T13:41:50;4.93;;;4.50;;
1831;SDS011;1680;48.106;11.708;2023-06-04T13:44:20;5.60;;;5.10;;
1831;SDS011;1680;48.106;11.708;2023-06-04T13:46:51;5.07;;;4.23;;
1831;SDS011;1680;48.106;11.708;2023-06-04T13:49:18;4.90;;;4.50;;
1831;SDS011;1680;48.106;11.708;2023-06-04T13:51:45;5.50;;;4.50;;
1831;SDS011;1680;48.106;11.708;2023-06-04T13:54:12;5.13;;;4.70;;
1831;SDS011;1680;48.106;11.708;2023-06-04T13:56:39;5.40;;;4.90;;
1831;SDS011;1680;48.106;11.708;2023-06-04T13:59:07;4.80;;;4.40;;
1831;SDS011;1680;48.106;11.708;2023-06-04T14:01:35;6.03;;;4.60;;
1831;SDS011;1680;48.106;11.708;2023-06-04T14:04:02;5.70;;;4.87;;
1831;SDS011;1680;48.106;11.708;2023-06-04T14:06:31;5.53;;;4.93;;
1831;SDS011;1680;48.106;11.708;2023-06-04T14:09:00;4.83;;;4.20;;
1831;SDS011;1680;48.106;11.708;2023-06-04T14:11:28;5.50;;;4.77;;
1831;SDS011;1680;48.106;11.708;2023-06-04T14:13:55;5.00;;;4.50;;
1831;SDS011;1680;48.106;11.708;2023-06-04T14:16:22;7.30;;;4.63;;
1831;SDS011;1680;48.106;11.708;2023-06-04T14:18:51;4.90;;;4.40;;
1831;SDS011;1680;48.106;11.708;2023-06-04T14:21:18;5.37;;;4.87;;
1831;SDS011;1680;48.106;11.708;2023-06-04T14:23:46;5.03;;;4.57;;
1831;SDS011;1680;48.106;11.708;2023-06-04T14:26:14;4.30;;;3.93;;
1831;SDS011;1680;48.106;11.708;2023-06-04T14:28:45;5.10;;;4.40;;
1831;SDS011;1680;48.106;11.708;2023-06-04T14:31:13;6.30;;;5.13;;
1831;SDS011;1680;48.106;11.708;2023-06-04T14:33:40;4.93;;;4.53;;
1831;SDS011;1680;48.106;11.708;2023-06-04T14:36:08;5.53;;;5.03;;
1831;SDS011;1680;48.106;11.708;2023-06-04T14:38:35;5.73;;;5.10;;
1831;SDS011;1680;48.106;11.708;2023-06-04T14:41:03;5.57;;;5.07;;
1831;SDS011;1680;48.106;11.708;2023-06-04T14:43:30;6.10;;;5.60;;
1831;SDS011;1680;48.106;11.708;2023-06-04T14:45:57;5.30;;;4.70;;
1831;SDS011;1680;48.106;11.708;2023-06-04T14:48:25;5.47;;;4.73;;
1831;SDS011;1680;48.106;11.708;2023-06-04T14:50:52;5.57;;;5.07;;
1831;SDS011;1680;48.106;11.708;2023-06-04T14:53:22;5.80;;;5.30;;
1831;SDS011;1680;48.106;11.708;2023-06-04T14:55:49;6.03;;;5.00;;
1831;SDS011;1680;48.106;11.708;2023-06-04T14:58:17;5.00;;;4.60;;
1831;SDS011;1680;48.106;11.708;2023-06-04T15:00:45;5.37;;;4.87;;
1831;SDS011;1680;48.106;11.708;2023-06-04T15:03:12;5.40;;;4.90;;
1831;SDS011;1680;48.106;11.708;2023-06-04T15:05:39;5.63;;;5.13;;
1831;SDS011;1680;48.106;11.708;2023-06-04T15:08:06;5.50;;;4.90;;